createdAt,value
2022-10-30T00:01:36.530Z,17.87
2022-10-30T00:04:03.154Z,17.88
2022-10-30T00:06:29.854Z,17.88
2022-10-30T00:08:56.388Z,17.87
2022-10-30T00:11:23.042Z,17.88
2022-10-30T00:13:49.577Z,17.87
2022-10-30T00:16:16.355Z,17.87
2022-10-30T00:18:43.323Z,17.86
2022-10-30T00:21:13.137Z,17.86
2022-10-30T00:23:40.964Z,17.87
2022-10-30T00:26:07.881Z,17.87
2022-10-30T00:28:34.602Z,17.87
2022-10-30T00:31:03.352Z,17.87
2022-10-30T00:33:30.109Z,17.86
2022-10-30T00:35:56.678Z,17.86
2022-10-30T00:38:23.259Z,17.85
2022-10-30T00:40:49.931Z,17.86
2022-10-30T00:43:33.263Z,17.86
2022-10-30T00:46:38.705Z,17.85
2022-10-30T00:49:14.199Z,17.85
2022-10-30T00:51:44.882Z,17.85
2022-10-30T00:54:12.192Z,17.85
2022-10-30T00:56:38.799Z,17.84
2022-10-30T00:59:08.602Z,17.84
2022-10-30T01:01:38.114Z,17.83
2022-10-30T01:04:05.952Z,17.84
2022-10-30T01:06:34.331Z,17.83
2022-10-30T01:09:01.661Z,17.83
2022-10-30T01:11:28.349Z,17.83
2022-10-30T01:13:57.109Z,17.83
2022-10-30T01:16:57.841Z,17.83
2022-10-30T01:19:56.656Z,17.83
2022-10-30T01:22:29.061Z,17.82
2022-10-30T01:25:13.884Z,17.82
2022-10-30T01:27:58.891Z,17.82
2022-10-30T01:30:40.558Z,17.82
2022-10-30T01:33:25.849Z,17.81
2022-10-30T01:36:10.517Z,17.81
2022-10-30T01:38:45.494Z,17.81
2022-10-30T01:41:12.079Z,17.82
2022-10-30T01:43:39.468Z,17.81
2022-10-30T01:46:12.013Z,17.81
2022-10-30T01:48:52.555Z,17.81
2022-10-30T01:52:00.901Z,17.82
2022-10-30T01:54:30.437Z,17.82
2022-10-30T01:57:05.879Z,17.81
2022-10-30T01:59:35.341Z,17.82
2022-10-30T02:02:02.088Z,17.80
2022-10-30T02:04:29.174Z,17.81
2022-10-30T02:06:55.809Z,17.82
2022-10-30T02:09:22.405Z,17.80
2022-10-30T02:11:49.697Z,17.80
2022-10-30T02:14:21.936Z,17.81
2022-10-30T02:16:50.523Z,17.81
2022-10-30T02:19:17.481Z,17.80
2022-10-30T02:21:44.069Z,17.80
2022-10-30T02:24:10.762Z,17.79
2022-10-30T02:26:38.178Z,17.79
2022-10-30T02:29:04.814Z,17.78
2022-10-30T02:31:31.401Z,17.78
2022-10-30T02:33:59.362Z,17.78
2022-10-30T02:36:26.026Z,17.78
2022-10-30T02:38:52.640Z,17.78
2022-10-30T02:41:19.374Z,17.79
2022-10-30T02:43:45.916Z,17.78
2022-10-30T02:46:12.469Z,17.79
2022-10-30T02:48:39.079Z,17.78
2022-10-30T02:51:05.826Z,17.76
2022-10-30T02:53:33.769Z,17.77
2022-10-30T02:56:08.233Z,17.78
2022-10-30T02:58:34.918Z,17.77
2022-10-30T03:01:13.334Z,17.76
2022-10-30T03:03:40.514Z,17.76
2022-10-30T03:06:08.930Z,17.77
2022-10-30T03:08:36.010Z,17.76
2022-10-30T03:11:04.819Z,17.76
2022-10-30T03:13:32.405Z,17.76
2022-10-30T03:16:02.344Z,17.77
2022-10-30T03:18:29.013Z,17.76
2022-10-30T03:20:57.644Z,17.77
2022-10-30T03:23:24.185Z,17.77
2022-10-30T03:25:55.285Z,17.78
2022-10-30T03:28:23.121Z,17.77
2022-10-30T03:30:50.628Z,17.77
2022-10-30T03:33:17.641Z,17.76
2022-10-30T03:35:45.100Z,17.77
2022-10-30T03:38:13.080Z,17.77
2022-10-30T03:40:40.588Z,17.76
2022-10-30T03:43:07.883Z,17.77
2022-10-30T03:45:35.157Z,17.75
2022-10-30T03:48:02.217Z,17.76
2022-10-30T03:50:28.817Z,17.75
2022-10-30T03:52:56.330Z,17.75
2022-10-30T03:55:23.337Z,17.77
2022-10-30T03:57:49.875Z,17.76
2022-10-30T04:00:17.660Z,17.75
2022-10-30T04:02:48.945Z,17.75
2022-10-30T04:05:16.684Z,17.75
2022-10-30T04:07:43.393Z,17.75
2022-10-30T04:10:10.837Z,17.74
2022-10-30T04:12:37.665Z,17.73
2022-10-30T04:15:05.862Z,17.72
2022-10-30T04:17:32.442Z,17.74
2022-10-30T04:19:59.030Z,17.74
2022-10-30T04:22:25.936Z,17.73
2022-10-30T04:24:53.646Z,17.72
2022-10-30T04:27:20.632Z,17.72
2022-10-30T04:29:47.482Z,17.73
2022-10-30T04:32:14.086Z,17.71
2022-10-30T04:34:40.880Z,17.73
2022-10-30T04:37:07.907Z,17.72
2022-10-30T04:39:34.488Z,17.71
2022-10-30T04:42:01.189Z,17.72
2022-10-30T04:44:27.727Z,17.71
2022-10-30T04:46:54.458Z,17.73
2022-10-30T04:49:21.035Z,17.71
2022-10-30T04:51:47.609Z,17.72
2022-10-30T04:54:14.175Z,17.72
2022-10-30T04:56:40.733Z,17.72
2022-10-30T04:59:07.428Z,17.73
2022-10-30T05:01:34.089Z,17.71
2022-10-30T05:04:00.741Z,17.73
2022-10-30T05:06:30.166Z,17.73
2022-10-30T05:08:57.147Z,17.73
2022-10-30T05:11:23.825Z,17.73
2022-10-30T05:13:50.357Z,17.74
2022-10-30T05:16:16.904Z,17.74
2022-10-30T05:18:43.631Z,17.73
2022-10-30T05:21:10.266Z,17.72
2022-10-30T05:23:36.844Z,17.72
2022-10-30T05:26:03.469Z,17.71
2022-10-30T05:28:30.021Z,17.71
2022-10-30T05:30:56.579Z,17.71
2022-10-30T05:33:23.687Z,17.71
2022-10-30T05:35:50.441Z,17.71
2022-10-30T05:38:16.959Z,17.70
2022-10-30T05:40:46.362Z,17.70
2022-10-30T05:43:12.892Z,17.70
2022-10-30T05:45:39.436Z,17.70
2022-10-30T05:48:06.766Z,17.70
2022-10-30T05:50:33.747Z,17.68
2022-10-30T05:53:02.207Z,17.69
2022-10-30T05:55:28.996Z,17.68
2022-10-30T05:58:03.852Z,17.69
2022-10-30T06:00:32.554Z,17.69
2022-10-30T06:03:01.108Z,17.67
2022-10-30T06:05:30.279Z,17.68
2022-10-30T06:07:56.990Z,17.69
2022-10-30T06:10:24.294Z,17.68
2022-10-30T06:12:55.170Z,17.68
2022-10-30T06:15:22.241Z,17.67
2022-10-30T06:17:48.872Z,17.68
2022-10-30T06:20:16.353Z,17.67
2022-10-30T06:22:42.887Z,17.67
2022-10-30T06:25:09.631Z,17.66
2022-10-30T06:27:36.461Z,17.65
2022-10-30T06:30:03.561Z,17.67
2022-10-30T06:32:30.127Z,17.66
2022-10-30T06:34:56.699Z,17.69
2022-10-30T06:37:23.310Z,17.71
2022-10-30T06:39:49.901Z,17.70
2022-10-30T06:42:16.428Z,17.68
2022-10-30T06:44:42.961Z,17.68
2022-10-30T06:47:09.503Z,17.67
2022-10-30T06:49:36.121Z,17.67
2022-10-30T06:52:02.686Z,17.67
2022-10-30T06:54:29.224Z,17.66
2022-10-30T06:56:55.765Z,17.68
2022-10-30T06:59:22.298Z,17.68
2022-10-30T07:01:49.256Z,17.67
2022-10-30T07:04:16.130Z,17.68
2022-10-30T07:06:44.305Z,17.68
2022-10-30T07:09:11.090Z,17.69
2022-10-30T07:11:37.681Z,17.68
2022-10-30T07:14:04.237Z,17.68
2022-10-30T07:16:30.777Z,17.68
2022-10-30T07:19:00.622Z,17.68
2022-10-30T07:21:31.653Z,17.69
2022-10-30T07:23:58.313Z,17.69
2022-10-30T07:26:24.877Z,17.70
2022-10-30T07:28:51.458Z,17.70
2022-10-30T07:31:24.252Z,17.69
2022-10-30T07:34:01.806Z,17.69
2022-10-30T07:36:28.332Z,17.69
2022-10-30T07:38:54.977Z,17.69
2022-10-30T07:41:21.872Z,17.71
2022-10-30T07:43:48.469Z,17.70
2022-10-30T07:46:15.445Z,17.71
2022-10-30T07:48:41.994Z,17.71
2022-10-30T07:51:08.920Z,17.70
2022-10-30T07:53:35.538Z,17.72
2022-10-30T07:56:02.121Z,17.72
2022-10-30T07:58:28.675Z,17.73
2022-10-30T08:00:55.214Z,17.73
2022-10-30T08:03:21.797Z,17.73
2022-10-30T08:05:48.345Z,17.74
2022-10-30T08:08:14.985Z,17.74
2022-10-30T08:10:41.556Z,17.74
2022-10-30T08:13:08.145Z,17.73
2022-10-30T08:15:34.686Z,17.74
2022-10-30T08:18:01.838Z,17.72
2022-10-30T08:20:28.589Z,17.72
2022-10-30T08:22:57.200Z,17.74
2022-10-30T08:25:27.315Z,17.72
2022-10-30T08:27:56.664Z,17.71
2022-10-30T08:30:24.639Z,17.72
2022-10-30T08:32:51.243Z,17.73
2022-10-30T08:35:19.976Z,17.74
2022-10-30T08:37:46.863Z,17.73
2022-10-30T08:40:13.466Z,17.72
2022-10-30T08:42:40.058Z,17.73
2022-10-30T08:45:07.287Z,17.73
2022-10-30T08:47:34.031Z,17.74
2022-10-30T08:50:00.588Z,17.75
2022-10-30T08:52:27.139Z,17.74
2022-10-30T08:54:54.343Z,17.75
2022-10-30T08:57:21.283Z,17.74
2022-10-30T08:59:47.866Z,17.74
2022-10-30T09:02:14.672Z,17.74
2022-10-30T09:04:41.297Z,17.73
2022-10-30T09:07:10.344Z,17.74
2022-10-30T09:09:39.457Z,17.75
2022-10-30T09:12:06.271Z,17.75
2022-10-30T09:14:32.850Z,17.76
2022-10-30T09:16:59.615Z,17.76
2022-10-30T09:19:28.545Z,17.76
2022-10-30T09:21:55.215Z,17.77
2022-10-30T09:24:21.764Z,17.77
2022-10-30T09:26:48.332Z,17.77
2022-10-30T09:29:15.074Z,17.78
2022-10-30T09:31:41.644Z,17.79
2022-10-30T09:34:08.265Z,17.78
2022-10-30T09:36:35.576Z,17.78
2022-10-30T09:39:02.157Z,17.79
2022-10-30T09:42:04.950Z,17.79
2022-10-30T09:44:38.428Z,17.81
2022-10-30T09:47:25.728Z,17.82
2022-10-30T09:50:10.705Z,17.82
2022-10-30T09:53:02.083Z,17.84
2022-10-30T09:55:47.688Z,17.84
2022-10-30T09:58:36.835Z,17.85
2022-10-30T10:01:20.589Z,17.86
2022-10-30T10:04:11.343Z,17.86
2022-10-30T10:06:41.452Z,17.87
2022-10-30T10:09:15.329Z,17.89
2022-10-30T10:11:46.547Z,17.91
2022-10-30T10:14:29.684Z,17.91
2022-10-30T10:16:57.268Z,17.90
2022-10-30T10:19:36.392Z,17.89
2022-10-30T10:22:04.335Z,17.87
2022-10-30T10:24:36.203Z,17.88
2022-10-30T10:27:23.016Z,17.89
2022-10-30T10:30:01.007Z,17.90
2022-10-30T10:32:33.478Z,17.92
2022-10-30T10:35:18.853Z,17.95
2022-10-30T10:38:09.618Z,18.02
2022-10-30T10:41:10.604Z,18.08
2022-10-30T10:43:46.229Z,18.14
2022-10-30T10:46:27.070Z,18.18
2022-10-30T10:49:15.008Z,18.22
2022-10-30T10:51:44.434Z,18.24
2022-10-30T10:54:12.723Z,18.25
2022-10-30T10:56:41.781Z,18.30
2022-10-30T10:59:42.318Z,18.34
2022-10-30T11:02:08.921Z,18.35
2022-10-30T11:04:40.989Z,18.36
2022-10-30T11:07:30.933Z,18.35
2022-10-30T11:09:58.277Z,18.33
2022-10-30T11:12:33.709Z,18.31
2022-10-30T11:15:20.373Z,18.28
2022-10-30T11:20:44.549Z,18.20
2022-10-30T11:23:30.840Z,18.18
2022-10-30T11:25:57.442Z,18.17
2022-10-30T11:28:35.172Z,18.13
2022-10-30T11:31:28.320Z,18.11
2022-10-30T11:33:54.869Z,18.08
2022-10-30T11:36:25.828Z,18.07
2022-10-30T11:38:54.000Z,18.07
2022-10-30T11:41:21.020Z,18.06
2022-10-30T11:43:49.244Z,18.04
2022-10-30T11:46:22.602Z,18.01
2022-10-30T11:48:55.068Z,18.02
2022-10-30T11:51:37.377Z,17.99
2022-10-30T11:54:04.955Z,18.01
2022-10-30T11:56:32.313Z,18.00
2022-10-30T11:59:02.007Z,17.99
2022-10-30T12:01:31.123Z,17.99
2022-10-30T12:04:14.253Z,17.98
2022-10-30T12:06:40.981Z,17.98
2022-10-30T12:09:23.543Z,17.99
2022-10-30T12:11:50.276Z,17.95
2022-10-30T12:14:22.109Z,17.96
2022-10-30T12:16:50.801Z,17.95
2022-10-30T12:19:18.481Z,17.97
2022-10-30T12:21:50.217Z,17.97
2022-10-30T12:24:31.508Z,17.98
2022-10-30T12:27:01.834Z,17.98
2022-10-30T12:30:06.955Z,17.97
2022-10-30T12:32:33.546Z,17.98
2022-10-30T12:35:09.373Z,17.98
2022-10-30T12:37:41.323Z,18.00
2022-10-30T12:40:13.680Z,18.01
2022-10-30T12:42:45.308Z,18.02
2022-10-30T12:45:25.185Z,18.04
2022-10-30T12:47:57.947Z,18.03
2022-10-30T12:50:44.993Z,18.03
2022-10-30T12:53:28.142Z,18.05
2022-10-30T12:56:07.942Z,18.04
2022-10-30T12:59:12.892Z,18.05
2022-10-30T13:01:56.059Z,18.08
2022-10-30T13:04:25.830Z,18.09
2022-10-30T13:07:05.270Z,18.13
2022-10-30T13:09:40.889Z,18.16
2022-10-30T13:12:20.550Z,18.14
2022-10-30T13:15:00.934Z,18.19
2022-10-30T13:17:28.756Z,18.18
2022-10-30T13:19:55.647Z,18.17
2022-10-30T13:22:45.172Z,18.15
2022-10-30T13:25:15.032Z,18.14
2022-10-30T13:27:47.472Z,18.19
2022-10-30T13:30:20.711Z,18.26
2022-10-30T13:32:55.315Z,18.45
2022-10-30T13:35:36.077Z,18.64
2022-10-30T13:38:05.495Z,18.83
2022-10-30T13:41:22.610Z,18.95
2022-10-30T13:44:21.477Z,19.01
2022-10-30T13:47:02.938Z,19.05
2022-10-30T13:49:39.778Z,19.06
2022-10-30T13:52:15.573Z,18.98
2022-10-30T13:55:13.155Z,18.89
2022-10-30T13:57:55.826Z,18.73
2022-10-30T14:00:29.949Z,18.58
2022-10-30T14:03:18.181Z,18.51
2022-10-30T14:06:03.279Z,18.45
2022-10-30T14:08:39.042Z,18.41
2022-10-30T14:11:06.658Z,18.38
2022-10-30T14:13:36.237Z,18.37
2022-10-30T14:16:06.351Z,18.38
2022-10-30T14:18:44.595Z,18.36
2022-10-30T14:21:39.361Z,18.37
2022-10-30T14:24:18.399Z,18.38
2022-10-30T14:26:53.900Z,18.41
2022-10-30T14:29:37.786Z,18.52
2022-10-30T14:32:18.152Z,18.63
2022-10-30T14:34:50.896Z,18.72
2022-10-30T14:37:23.431Z,18.77
2022-10-30T14:39:51.561Z,18.70
2022-10-30T14:42:44.918Z,18.69
2022-10-30T14:45:18.069Z,18.58
2022-10-30T14:47:50.550Z,18.50
2022-10-30T14:50:38.516Z,18.45
2022-10-30T14:53:22.222Z,18.38
2022-10-30T14:55:56.044Z,18.32
2022-10-30T14:58:32.275Z,18.28
2022-10-30T15:01:04.633Z,18.24
2022-10-30T15:03:39.910Z,18.22
2022-10-30T15:06:18.830Z,18.20
2022-10-30T15:09:23.953Z,18.18
2022-10-30T15:12:05.650Z,18.16
2022-10-30T15:14:56.619Z,18.14
2022-10-30T15:17:29.486Z,18.13
2022-10-30T15:19:56.792Z,18.12
2022-10-30T15:22:23.819Z,18.12
2022-10-30T15:24:51.400Z,18.11
2022-10-30T15:27:19.643Z,18.10
2022-10-30T15:29:54.193Z,18.07
2022-10-30T15:32:22.622Z,18.09
2022-10-30T15:34:55.485Z,18.08
2022-10-30T15:37:22.403Z,18.06
2022-10-30T15:39:49.144Z,18.07
2022-10-30T15:42:16.223Z,18.06
2022-10-30T15:44:44.490Z,18.07
2022-10-30T15:47:18.904Z,18.07
2022-10-30T15:49:50.685Z,18.07
2022-10-30T15:52:22.566Z,18.06
2022-10-30T15:55:05.754Z,18.07
2022-10-30T16:00:33.835Z,18.07
2022-10-30T16:03:07.609Z,18.06
2022-10-30T16:05:34.972Z,18.04
2022-10-30T16:08:03.015Z,18.02
2022-10-30T16:10:35.016Z,18.03
2022-10-30T16:13:03.011Z,18.04
2022-10-30T16:15:34.422Z,18.02
2022-10-30T16:18:28.263Z,18.01
2022-10-30T16:21:02.951Z,18.03
2022-10-30T16:23:30.214Z,18.00
2022-10-30T16:25:58.958Z,18.00
2022-10-30T16:28:29.997Z,17.99
2022-10-30T16:31:01.983Z,17.99
2022-10-30T16:33:30.041Z,17.99
2022-10-30T16:35:56.977Z,17.98
2022-10-30T16:38:24.883Z,17.98
2022-10-30T16:40:51.744Z,17.98
2022-10-30T16:43:49.659Z,17.98
2022-10-30T16:46:16.212Z,17.98
2022-10-30T16:48:57.023Z,17.96
2022-10-30T16:51:23.872Z,17.95
2022-10-30T16:53:53.636Z,17.97
2022-10-30T16:56:24.372Z,17.94
2022-10-30T16:58:52.404Z,17.95
2022-10-30T17:01:22.400Z,17.95
2022-10-30T17:03:49.571Z,17.94
2022-10-30T17:06:43.187Z,17.94
2022-10-30T17:09:20.870Z,17.95
2022-10-30T17:12:15.447Z,17.94
2022-10-30T17:14:44.920Z,17.93
2022-10-30T17:17:23.797Z,17.94
2022-10-30T17:19:55.881Z,17.93
2022-10-30T17:22:22.618Z,17.94
2022-10-30T17:24:49.268Z,17.94
2022-10-30T17:27:51.089Z,17.94
2022-10-30T17:30:44.687Z,17.93
2022-10-30T17:33:33.086Z,17.92
2022-10-30T17:35:59.754Z,17.93
2022-10-30T17:38:26.845Z,17.93
2022-10-30T17:40:53.505Z,17.93
2022-10-30T17:43:20.360Z,17.92
2022-10-30T17:45:46.981Z,17.93
2022-10-30T17:48:18.375Z,17.92
2022-10-30T17:50:45.245Z,17.92
2022-10-30T17:53:16.531Z,17.91
2022-10-30T17:55:44.849Z,17.92
2022-10-30T17:58:11.635Z,17.91
2022-10-30T18:00:38.284Z,17.90
2022-10-30T18:03:04.870Z,17.89
2022-10-30T18:05:32.380Z,17.88
2022-10-30T18:07:59.017Z,17.90
2022-10-30T18:10:25.670Z,17.89
2022-10-30T18:12:52.268Z,17.89
2022-10-30T18:15:27.250Z,17.89
2022-10-30T18:17:54.065Z,17.89
2022-10-30T18:20:21.046Z,17.88
2022-10-30T18:22:47.795Z,17.88
2022-10-30T18:25:24.728Z,17.88
2022-10-30T18:27:51.878Z,17.88
2022-10-30T18:30:19.213Z,17.88
2022-10-30T18:32:46.358Z,17.88
2022-10-30T18:35:26.525Z,17.87
2022-10-30T18:37:53.357Z,17.87
2022-10-30T18:40:22.460Z,17.87
2022-10-30T18:42:49.461Z,17.87
2022-10-30T18:45:20.701Z,17.85
2022-10-30T18:47:47.763Z,17.86
2022-10-30T18:50:15.144Z,17.86
2022-10-30T18:52:41.966Z,17.86
2022-10-30T18:55:33.960Z,17.85
2022-10-30T18:58:01.366Z,17.86
2022-10-30T19:00:39.799Z,17.86
2022-10-30T19:03:12.105Z,17.86
2022-10-30T19:05:47.771Z,17.86
2022-10-30T19:08:14.588Z,17.87
2022-10-30T19:10:46.233Z,17.86
2022-10-30T19:13:20.573Z,17.86
2022-10-30T19:16:00.133Z,17.86
2022-10-30T19:18:28.479Z,17.85
2022-10-30T19:21:04.463Z,17.84
2022-10-30T19:23:32.300Z,17.83
2022-10-30T19:25:58.971Z,17.85
2022-10-30T19:28:26.030Z,17.84
2022-10-30T19:30:54.727Z,17.83
2022-10-30T19:33:23.090Z,17.84
2022-10-30T19:35:58.210Z,17.83
2022-10-30T19:38:25.015Z,17.83
2022-10-30T19:40:51.868Z,17.82
2022-10-30T19:43:18.469Z,17.83
2022-10-30T19:45:45.193Z,17.82
2022-10-30T19:48:20.731Z,17.83
2022-10-30T19:50:51.446Z,17.82
2022-10-30T19:53:18.157Z,17.82
2022-10-30T19:55:45.012Z,17.82
2022-10-30T19:58:15.849Z,17.82
2022-10-30T20:00:44.625Z,17.81
2022-10-30T20:03:13.220Z,17.81
2022-10-30T20:05:45.692Z,17.80
2022-10-30T20:08:13.536Z,17.79
2022-10-30T20:10:52.819Z,17.81
2022-10-30T20:13:20.699Z,17.79
2022-10-30T20:15:47.322Z,17.80
2022-10-30T20:18:21.991Z,17.80
2022-10-30T20:20:50.680Z,17.79
2022-10-30T20:23:18.082Z,17.79
2022-10-30T20:25:45.055Z,17.78
2022-10-30T20:28:27.760Z,17.79
2022-10-30T20:30:54.797Z,17.79
2022-10-30T20:33:21.976Z,17.79
2022-10-30T20:35:50.171Z,17.80
2022-10-30T20:38:22.330Z,17.79
2022-10-30T20:40:49.459Z,17.80
2022-10-30T20:43:18.381Z,17.80
2022-10-30T20:45:45.095Z,17.79
2022-10-30T20:48:11.971Z,17.80
2022-10-30T20:50:39.644Z,17.78
2022-10-30T20:53:06.498Z,17.78
2022-10-30T20:55:35.132Z,17.78
2022-10-30T20:58:02.711Z,17.79
2022-10-30T21:00:30.248Z,17.76
2022-10-30T21:02:56.837Z,17.77
2022-10-30T21:05:42.562Z,17.77
2022-10-30T21:08:10.189Z,17.76
2022-10-30T21:10:37.580Z,17.76
2022-10-30T21:13:07.476Z,17.76
2022-10-30T21:15:41.232Z,17.76
2022-10-30T21:18:08.302Z,17.76
2022-10-30T21:20:35.605Z,17.75
2022-10-30T21:23:02.198Z,17.76
2022-10-30T21:25:29.643Z,17.75
2022-10-30T21:27:57.171Z,17.74
2022-10-30T21:30:24.148Z,17.75
2022-10-30T21:32:50.865Z,17.73
2022-10-30T21:35:17.941Z,17.74
2022-10-30T21:37:44.530Z,17.73
2022-10-30T21:40:11.945Z,17.73
2022-10-30T21:42:38.532Z,17.71
2022-10-30T21:45:05.896Z,17.72
2022-10-30T21:47:32.521Z,17.72
2022-10-30T21:49:59.105Z,17.73
2022-10-30T21:52:25.732Z,17.71
2022-10-30T21:54:52.284Z,17.71
2022-10-30T21:57:18.950Z,17.70
2022-10-30T21:59:45.610Z,17.70
2022-10-30T22:02:15.477Z,17.71
2022-10-30T22:04:42.256Z,17.71
2022-10-30T22:07:08.897Z,17.72
2022-10-30T22:09:35.518Z,17.71
2022-10-30T22:12:02.080Z,17.73
2022-10-30T22:14:29.389Z,17.73
2022-10-30T22:16:56.103Z,17.72
2022-10-30T22:19:22.683Z,17.72
2022-10-30T22:21:49.262Z,17.73
2022-10-30T22:24:17.276Z,17.72
2022-10-30T22:26:44.174Z,17.72
2022-10-30T22:29:11.703Z,17.72
2022-10-30T22:31:38.261Z,17.72
2022-10-30T22:34:04.880Z,17.71
2022-10-30T22:36:33.314Z,17.70
2022-10-30T22:39:01.844Z,17.72
2022-10-30T22:41:32.842Z,17.69
2022-10-30T22:44:07.887Z,17.69
2022-10-30T22:46:35.433Z,17.70
2022-10-30T22:49:02.041Z,17.69
2022-10-30T22:51:31.969Z,17.69
2022-10-30T22:54:01.200Z,17.68
2022-10-30T22:56:30.087Z,17.67
2022-10-30T22:58:57.004Z,17.68
2022-10-30T23:01:26.179Z,17.68
2022-10-30T23:03:55.440Z,17.68
2022-10-30T23:06:22.010Z,17.67
2022-10-30T23:08:49.208Z,17.66
2022-10-30T23:11:15.838Z,17.68
2022-10-30T23:13:42.477Z,17.67
2022-10-30T23:16:12.784Z,17.66
2022-10-30T23:18:39.575Z,17.64
2022-10-30T23:21:09.110Z,17.65
2022-10-30T23:23:37.174Z,17.66
2022-10-30T23:26:15.617Z,17.63
2022-10-30T23:28:42.601Z,17.63
2022-10-30T23:31:27.571Z,17.63
2022-10-30T23:33:56.711Z,17.64
2022-10-30T23:36:23.473Z,17.63
2022-10-30T23:39:00.347Z,17.63
2022-10-30T23:41:29.005Z,17.64
2022-10-30T23:43:57.368Z,17.63
2022-10-30T23:46:24.082Z,17.64
2022-10-30T23:48:50.824Z,17.64
2022-10-30T23:51:17.556Z,17.63
2022-10-30T23:53:44.210Z,17.63
2022-10-30T23:56:11.066Z,17.63
2022-10-30T23:58:37.649Z,17.64
